Time,TemperatureF,DewpointF,PressureIn,WindDirection,WindDirectionDegrees,WindSpeedMPH,WindSpeedGustMPH,Humidity,HourlyPrecipIn,Conditions,Clouds,dailyrainin,SolarRadiationWatts/m^2,SoftwareType,DateUTC
2013-04-16 00:03:00,61.0,61.0,-100.00,SSW,197,2.0,5.0,99,0.00,,,0.03,0.000000,,2013-04-16 04:03:00,
2013-04-16 00:33:00,59.0,59.0,-100.00,SSW,206,2.0,4.0,99,0.00,,,0.02,0.000000,,2013-04-16 04:33:00,
2013-04-16 00:42:00,59.0,59.0,-100.00,SSW,206,2.0,4.0,99,0.00,,,0.02,0.000000,,2013-04-16 04:42:00,
2013-04-16 00:53:00,59.0,59.0,-100.00,SSW,206,2.0,4.0,99,0.00,,,0.02,0.000000,,2013-04-16 04:53:00,
2013-04-16 01:03:00,59.0,59.0,-100.00,SSW,206,2.0,4.0,99,0.00,,,0.02,0.000000,,2013-04-16 05:03:00,
2013-04-16 01:32:00,58.0,58.0,-100.00,South,180,0.0,4.0,99,0.00,,,0.02,0.000000,,2013-04-16 05:32:00,
2013-04-16 01:42:00,58.0,58.0,-100.00,South,180,0.0,4.0,99,0.00,,,0.02,0.000000,,2013-04-16 05:42:00,
2013-04-16 01:52:00,58.0,58.0,-100.00,South,180,0.0,4.0,99,0.00,,,0.02,0.000000,,2013-04-16 05:52:00,
2013-04-16 02:02:00,58.0,58.0,-100.00,South,180,0.0,4.0,99,0.00,,,0.02,0.000000,,2013-04-16 06:02:00,
2013-04-16 02:32:00,56.0,56.0,-100.00,ESE,116,3.0,4.0,100,0.00,,,0.02,0.000000,,2013-04-16 06:32:00,
2013-04-16 02:42:00,56.0,56.0,-100.00,ESE,116,3.0,4.0,100,0.00,,,0.02,0.000000,,2013-04-16 06:42:00,
2013-04-16 02:52:00,56.0,56.0,-100.00,ESE,116,3.0,4.0,100,0.00,,,0.02,0.000000,,2013-04-16 06:52:00,
2013-04-16 03:02:00,56.0,56.0,-100.00,ESE,116,3.0,4.0,100,0.00,,,0.02,0.000000,,2013-04-16 07:02:00,
2013-04-16 03:32:00,58.0,58.0,-100.00,ESE,111,2.0,3.0,100,0.00,,,0.02,0.000000,,2013-04-16 07:32:00,
2013-04-16 03:42:00,58.0,58.0,-100.00,ESE,111,2.0,3.0,100,0.00,,,0.02,0.000000,,2013-04-16 07:42:00,
2013-04-16 03:53:00,58.0,58.0,-100.00,ESE,111,2.0,3.0,100,0.00,,,0.02,0.000000,,2013-04-16 07:53:00,
2013-04-16 04:02:00,58.0,58.0,-100.00,ESE,111,2.0,3.0,100,0.00,,,0.02,0.000000,,2013-04-16 08:02:00,
2013-04-16 04:32:00,58.0,58.0,-100.00,East,83,1.0,3.0,100,0.00,,,0.02,0.000000,,2013-04-16 08:32:00,
2013-04-16 04:42:00,58.0,58.0,-100.00,East,83,1.0,3.0,100,0.00,,,0.02,0.000000,,2013-04-16 08:42:00,
2013-04-16 04:52:00,58.0,58.0,-100.00,East,83,1.0,3.0,100,0.00,,,0.02,0.000000,,2013-04-16 08:52:00,
2013-04-16 05:02:00,58.0,58.0,-100.00,East,83,1.0,3.0,100,0.00,,,0.02,0.000000,,2013-04-16 09:02:00,
2013-04-16 05:33:00,56.0,56.0,-100.00,North,7,1.0,3.0,100,0.00,,,0.02,0.000000,,2013-04-16 09:33:00,
2013-04-16 05:43:00,56.0,56.0,-100.00,North,7,1.0,3.0,100,0.00,,,0.02,0.000000,,2013-04-16 09:43:00,
2013-04-16 05:53:00,56.0,56.0,-100.00,North,7,1.0,3.0,100,0.00,,,0.02,0.000000,,2013-04-16 09:53:00,
2013-04-16 06:03:00,56.0,56.0,-100.00,North,7,1.0,3.0,100,0.00,,,0.02,0.000000,,2013-04-16 10:03:00,
2013-04-16 06:33:00,55.0,55.0,-100.00,WNW,302,0.0,4.0,100,0.00,,,0.02,0.000000,,2013-04-16 10:33:00,
2013-04-16 06:43:00,55.0,55.0,-100.00,WNW,302,0.0,4.0,100,0.00,,,0.02,0.000000,,2013-04-16 10:43:00,
2013-04-16 06:53:00,55.0,55.0,-100.00,WNW,302,0.0,4.0,100,0.00,,,0.02,0.000000,,2013-04-16 10:53:00,
2013-04-16 07:03:00,55.0,55.0,-100.00,WNW,302,0.0,4.0,100,0.00,,,0.02,0.000000,,2013-04-16 11:03:00,
2013-04-16 07:32:00,54.0,54.0,-100.00,SSW,203,0.0,0.0,100,0.00,,,0.02,1.000000,,2013-04-16 11:32:00,
2013-04-16 07:42:00,54.0,54.0,-100.00,SSW,203,0.0,0.0,100,0.00,,,0.02,1.000000,,2013-04-16 11:42:00,
2013-04-16 07:53:00,54.0,54.0,-100.00,SSW,203,0.0,0.0,100,0.00,,,0.02,1.000000,,2013-04-16 11:53:00,
2013-04-16 08:02:00,54.0,54.0,-100.00,SSW,203,0.0,0.0,100,0.00,,,0.02,1.000000,,2013-04-16 12:02:00,
2013-04-16 08:32:00,55.0,55.0,-100.00,South,189,1.0,3.0,100,0.00,,,0.02,35.000000,,2013-04-16 12:32:00,
2013-04-16 08:42:00,55.0,55.0,-100.00,South,189,1.0,3.0,100,0.00,,,0.02,35.000000,,2013-04-16 12:42:00,
2013-04-16 08:52:00,55.0,55.0,-100.00,South,189,1.0,3.0,100,0.00,,,0.02,35.000000,,2013-04-16 12:52:00,
2013-04-16 09:02:00,55.0,55.0,-100.00,South,189,1.0,3.0,100,0.00,,,0.02,35.000000,,2013-04-16 13:02:00,
2013-04-16 09:32:00,62.0,62.0,-100.00,South,190,4.0,6.0,100,0.00,,,0.02,84.000000,,2013-04-16 13:32:00,
2013-04-16 09:42:00,62.0,62.0,-100.00,South,190,4.0,6.0,100,0.00,,,0.02,84.000000,,2013-04-16 13:42:00,
2013-04-16 09:52:00,62.0,62.0,-100.00,South,190,4.0,6.0,100,0.00,,,0.02,84.000000,,2013-04-16 13:52:00,
2013-04-16 10:02:00,62.0,62.0,-100.00,South,190,4.0,6.0,100,0.00,,,0.02,84.000000,,2013-04-16 14:02:00,
2013-04-16 10:32:00,69.0,65.0,-100.00,SSW,213,5.0,9.0,86,0.00,,,0.02,215.000000,,2013-04-16 14:32:00,
2013-04-16 10:42:00,69.0,65.0,-100.00,SSW,213,5.0,9.0,86,0.00,,,0.02,215.000000,,2013-04-16 14:42:00,
2013-04-16 10:52:00,69.0,65.0,-100.00,SSW,213,5.0,9.0,86,0.00,,,0.02,215.000000,,2013-04-16 14:52:00,
2013-04-16 11:02:00,69.0,65.0,-100.00,SSW,213,5.0,9.0,86,0.00,,,0.02,215.000000,,2013-04-16 15:02:00,
2013-04-16 11:33:00,76.0,64.0,-100.00,SW,226,3.0,9.0,66,0.00,,,0.02,717.000000,,2013-04-16 15:33:00,
2013-04-16 11:43:00,76.0,64.0,-100.00,SW,226,3.0,9.0,66,0.00,,,0.02,717.000000,,2013-04-16 15:43:00,
2013-04-16 11:53:00,76.0,64.0,-100.00,SW,226,3.0,9.0,66,0.00,,,0.02,717.000000,,2013-04-16 15:53:00,
2013-04-16 12:03:00,76.0,64.0,-100.00,SW,226,3.0,9.0,66,0.00,,,0.02,717.000000,,2013-04-16 16:03:00,
2013-04-16 12:33:00,78.0,62.0,-100.00,WNW,288,3.0,8.0,57,0.00,,,0.02,779.000000,,2013-04-16 16:33:00,
2013-04-16 12:42:00,78.0,62.0,-100.00,WNW,288,3.0,8.0,57,0.00,,,0.02,779.000000,,2013-04-16 16:42:00,
2013-04-16 12:53:00,78.0,62.0,-100.00,WNW,288,3.0,8.0,57,0.00,,,0.02,779.000000,,2013-04-16 16:53:00,
2013-04-16 13:02:00,78.0,62.0,-100.00,WNW,288,3.0,8.0,57,0.00,,,0.02,779.000000,,2013-04-16 17:02:00,
2013-04-16 13:33:00,80.0,62.0,-100.00,SW,221,4.0,7.0,54,0.00,,,0.00,640.000000,,2013-04-16 17:33:00,
2013-04-16 13:43:00,80.0,62.0,-100.00,SW,221,4.0,7.0,54,0.00,,,0.00,640.000000,,2013-04-16 17:43:00,
2013-04-16 13:53:00,80.0,62.0,-100.00,SW,221,4.0,7.0,54,0.00,,,0.00,640.000000,,2013-04-16 17:53:00,
2013-04-16 14:02:00,80.0,62.0,-100.00,SW,221,4.0,7.0,54,0.00,,,0.00,640.000000,,2013-04-16 18:02:00,
2013-04-16 14:32:00,82.0,61.0,-100.00,ESE,121,3.0,10.0,49,0.00,,,0.00,1001.000000,,2013-04-16 18:32:00,
2013-04-16 14:43:00,82.0,61.0,-100.00,ESE,121,3.0,10.0,49,0.00,,,0.00,1001.000000,,2013-04-16 18:43:00,
2013-04-16 14:52:00,82.0,61.0,-100.00,ESE,121,3.0,10.0,49,0.00,,,0.00,1001.000000,,2013-04-16 18:52:00,
2013-04-16 15:02:00,82.0,61.0,-100.00,ESE,121,3.0,10.0,49,0.00,,,0.00,1001.000000,,2013-04-16 19:02:00,
2013-04-16 15:32:00,79.0,58.0,-100.00,South,187,6.0,10.0,48,0.00,,,0.00,480.000000,,2013-04-16 19:32:00,
2013-04-16 15:43:00,79.0,58.0,-100.00,South,187,6.0,10.0,48,0.00,,,0.00,480.000000,,2013-04-16 19:43:00,
2013-04-16 15:52:00,79.0,58.0,-100.00,South,187,6.0,10.0,48,0.00,,,0.00,480.000000,,2013-04-16 19:52:00,
2013-04-16 16:02:00,79.0,58.0,-100.00,South,187,6.0,10.0,48,0.00,,,0.00,480.000000,,2013-04-16 20:02:00,
2013-04-16 16:32:00,81.0,61.0,-100.00,SW,223,6.0,11.0,51,0.00,,,0.00,526.000000,,2013-04-16 20:32:00,
2013-04-16 16:42:00,81.0,61.0,-100.00,SW,223,6.0,11.0,51,0.00,,,0.00,526.000000,,2013-04-16 20:42:00,
2013-04-16 16:52:00,81.0,61.0,-100.00,SW,223,6.0,11.0,51,0.00,,,0.00,526.000000,,2013-04-16 20:52:00,
2013-04-16 17:02:00,81.0,61.0,-100.00,SW,223,6.0,11.0,51,0.00,,,0.00,526.000000,,2013-04-16 21:02:00,
2013-04-16 17:33:00,79.0,59.0,-100.00,SW,226,3.0,10.0,50,0.00,,,0.00,302.000000,,2013-04-16 21:33:00,
2013-04-16 17:43:00,79.0,59.0,-100.00,SW,226,3.0,10.0,50,0.00,,,0.00,302.000000,,2013-04-16 21:43:00,
2013-04-16 17:53:00,79.0,59.0,-100.00,SW,226,3.0,10.0,50,0.00,,,0.00,302.000000,,2013-04-16 21:53:00,
2013-04-16 18:03:00,79.0,59.0,-100.00,SW,226,3.0,10.0,50,0.00,,,0.00,302.000000,,2013-04-16 22:03:00,
2013-04-16 18:33:00,78.0,59.0,-100.00,SSW,211,5.0,9.0,52,0.00,,,0.00,90.000000,,2013-04-16 22:33:00,
2013-04-16 18:43:00,78.0,59.0,-100.00,SSW,211,5.0,9.0,52,0.00,,,0.00,90.000000,,2013-04-16 22:43:00,
2013-04-16 18:52:00,78.0,59.0,-100.00,SSW,211,5.0,9.0,52,0.00,,,0.00,90.000000,,2013-04-16 22:52:00,
2013-04-16 19:02:00,78.0,59.0,-100.00,SSW,211,5.0,9.0,52,0.00,,,0.00,90.000000,,2013-04-16 23:02:00,
2013-04-16 19:32:00,74.0,60.0,-100.00,SW,223,5.0,10.0,61,0.00,,,0.00,42.000000,,2013-04-16 23:32:00,
2013-04-16 19:43:00,74.0,60.0,-100.00,SW,223,5.0,10.0,61,0.00,,,0.00,42.000000,,2013-04-16 23:43:00,
2013-04-16 19:52:00,74.0,60.0,-100.00,SW,223,5.0,10.0,61,0.00,,,0.00,42.000000,,2013-04-16 23:52:00,
2013-04-16 20:02:00,74.0,60.0,-100.00,SW,223,5.0,10.0,61,0.00,,,0.00,42.000000,,2013-04-17 00:02:00,
2013-04-16 20:32:00,69.0,61.0,-100.00,WSW,253,3.0,6.0,75,0.00,,,-99.99,13.000000,,2013-04-17 00:32:00,
2013-04-16 20:42:00,69.0,61.0,-100.00,WSW,253,3.0,6.0,75,0.00,,,-99.99,13.000000,,2013-04-17 00:42:00,
2013-04-16 20:52:00,69.0,61.0,-100.00,WSW,253,3.0,6.0,75,0.00,,,-99.99,13.000000,,2013-04-17 00:52:00,
2013-04-16 21:02:00,69.0,61.0,-100.00,WSW,253,3.0,6.0,75,0.00,,,-99.99,13.000000,,2013-04-17 01:02:00,
2013-04-16 21:32:00,64.0,60.0,-100.00,WSW,245,3.0,4.0,88,0.00,,,0.00,0.000000,,2013-04-17 01:32:00,
2013-04-16 21:42:00,64.0,60.0,-100.00,WSW,245,3.0,4.0,88,0.00,,,0.00,0.000000,,2013-04-17 01:42:00,
2013-04-16 21:52:00,64.0,60.0,-100.00,WSW,245,3.0,4.0,88,0.00,,,0.00,0.000000,,2013-04-17 01:52:00,
2013-04-16 22:02:00,64.0,60.0,-100.00,WSW,245,3.0,4.0,88,0.00,,,0.00,0.000000,,2013-04-17 02:02:00,
2013-04-16 22:32:00,62.0,61.0,-100.00,West,264,3.0,4.0,95,0.00,,,0.00,0.000000,,2013-04-17 02:32:00,
2013-04-16 22:42:00,62.0,61.0,-100.00,West,264,3.0,4.0,95,0.00,,,0.00,0.000000,,2013-04-17 02:42:00,
2013-04-16 22:52:00,62.0,61.0,-100.00,West,264,3.0,4.0,95,0.00,,,0.00,0.000000,,2013-04-17 02:52:00,
2013-04-16 23:02:00,62.0,61.0,-100.00,West,264,3.0,4.0,95,0.00,,,0.00,0.000000,,2013-04-17 03:02:00,
2013-04-16 23:33:00,61.0,60.0,-100.00,WSW,257,5.0,7.0,97,0.00,,,0.00,0.000000,,2013-04-17 03:33:00,
2013-04-16 23:43:00,61.0,60.0,-100.00,WSW,257,5.0,7.0,97,0.00,,,0.00,0.000000,,2013-04-17 03:43:00,
2013-04-16 23:53:00,61.0,60.0,-100.00,WSW,257,5.0,7.0,97,0.00,,,0.00,0.000000,,2013-04-17 03:53:00,